Terminal Aerodrome Forecast
Issued by NWS Tuscon, AZ

Home | Current Version | Previous Version | Text Only | Print | Product List | Glossary On
Versions: 1 2 3 4 5 6 7 8 9 10 11 12 13 14
379
FTUS45 KTWC 230520
TAFTUS
TAF
KTUS 230520Z 2306/2406 28008KT P6SM FEW150
     FM230800 17006KT P6SM FEW150
     FM231600 30007KT P6SM FEW150
     FM232100 32012G18KT P6SM FEW150
     FM240300 33006KT P6SM FEW200=

USA.gov is the U.S. government's official web portal to all federal, state and local government web resources and services.